Tuesday, September 2, 2014, 10:05 PM EDT

KSBY, Salisbury-wicomico Cty Reg

Location: Salisbury, MD, United States Lat: 38.333
Local Time: 10:05 PM EDT ( 2:05 GMT) Lon: -75.5
Time Zone: US/Eastern Elev: 52 ft

Show me the last for .
Show Decoded

2014-09-02 20:54 METAR KSBY 030054Z 20004KT 10SM CLR 28/23 A2990 RMK AO2 SLP125 T02830228 =
2014-09-02 19:54 METAR KSBY 022354Z 16005KT 10SM CLR 30/22 A2988 RMK AO2 SLP118 T03000222 10361
                 20300 55007 =
2014-09-02 18:54 METAR KSBY 022254Z 19004KT 10SM CLR 32/22 A2987 RMK AO2 SLP116 T03170217 =
2014-09-02 17:54 METAR KSBY 022154Z 20008KT 10SM CLR 34/22 A2988 RMK AO2 SLP117 T03390217 =
2014-09-02 16:54 METAR KSBY 022054Z 23008KT 10SM CLR 35/21 A2990 RMK AO2 SLP125 T03500206 56014 =
2014-09-02 15:54 METAR KSBY 021954Z 21009KT 10SM FEW050 35/19 A2990 RMK AO2 SLP126 T03500194 =
2014-09-02 14:54 METAR KSBY 021854Z 25008KT 10SM CLR 36/19 A2992 RMK AO2 SLP133 T03560194 =
2014-09-02 13:54 METAR KSBY 021754Z VRB06KT 10SM CLR 36/19 A2994 RMK AO2 SLP139 T03560194 10356
                 20261 58016 =
2014-09-02 12:54 METAR KSBY 021654Z 24007KT 10SM CLR 36/21 A2996 RMK AO2 SLP145 T03560206 =
2014-09-02 11:54 METAR KSBY 021554Z VRB03KT 10SM CLR 34/22 A2997 RMK AO2 SLP151 T03390217 =
2014-09-02 10:54 METAR KSBY 021454Z 21008KT 10SM CLR 33/22 A2999 RMK AO2 SLP156 T03280217 55001 =
2014-09-02 09:54 METAR KSBY 021354Z 23005KT 10SM CLR 32/23 A2999 RMK AO2 SLP155 T03170228 =
2014-09-02 08:54 METAR KSBY 021254Z 24006KT 10SM CLR 28/23 A2998 RMK AO2 SLP155 T02830228 =
2014-09-02 07:54 METAR KSBY 021154Z 00000KT 10SM CLR 26/23 A2999 RMK AO2 SLP157 T02610228 10261
                 20244 51014 =
2014-09-02 06:54 METAR KSBY 021054Z 23003KT 10SM CLR 25/22 A2999 RMK AO2 SLP155 T02500222 =
2014-09-02 05:54 METAR KSBY 020954Z AUTO 22003KT 10SM CLR 25/22 A2996 RMK AO2 SLP148 T02500222 =
2014-09-02 04:54 METAR KSBY 020854Z AUTO 24003KT 10SM CLR 25/22 A2995 RMK AO2 SLP143 T02500222
                 56008 =
2014-09-02 03:54 METAR KSBY 020754Z AUTO 22005KT 10SM CLR 25/22 A2996 RMK AO2 SLP145 T02500217 =
2014-09-02 02:54 METAR KSBY 020654Z AUTO 20004KT 10SM CLR 25/22 A2996 =
2014-09-02 01:54 METAR KSBY 020554Z AUTO 22003KT 10SM CLR 24/22 A2997 RMK AO2 SLP151 T02440222
                 10278 20239 58001 =
2014-09-02 00:54 METAR KSBY 020454Z AUTO 21004KT 10SM CLR 24/22 A2998 RMK AO2 SLP152 T02440217
                 403440239 =
2014-09-01 23:54 METAR KSBY 020354Z AUTO 00000KT 10SM CLR 24/21 A2999 RMK AO2 SLP156 T02440206 =
2014-09-01 22:54 METAR KSBY 020254Z AUTO 00000KT 10SM CLR 25/21 A2998 =

Support USWX by starting your Amazon purchase here.